• Join FlightAware (Why Join?)
  • Login
  • US Flag 
05:20AM EDT


 

Airport Tracker/Info


-or-


 

Live Flight TrackerFlight Track Log ✈ N330CL ✈ 06-Feb-2014 ✈ KSBA - KSMO

Flight Track Log - Related Links

Times and Time Zones

All times are in EST time to prevent confusion due to time zone crossing. See the N330CL flight status page for this flight to view local times or setup timezone preferences in your user account.

Time Position Orientation Groundspeed Altitude Reporting Facility
EST Latitude Longitude Course Direction KTS MPH feet Rate Location/Type
07:27PM 34.4117 -119.8350 173° South 86 99 500  Level Los Angeles Center
07:28PM 34.4006 -119.8333 173° South 90 104 1,000 960 Climbing Los Angeles Center
07:29PM 34.3694 -119.8303 175° South 105 121 2,000 900 Climbing Los Angeles Center
07:29PM 34.3681 -119.8292 147° Southeast 121 139 2,000 720 Level Los Angeles Center
07:30PM 34.3364 -119.8239 172° South 117 135 2,800 720 Climbing Los Angeles Center
07:31PM 34.3019 -119.8144 167° South 122 140 3,600 600 Climbing Los Angeles Center
07:32PM 34.2706 -119.7989 158° South 144 166 3,900 240 Climbing Los Angeles Center
07:32PM 34.2669 -119.8011 207° Southwest 123 142 3,900 660 Level Los Angeles Center
07:33PM 34.2600 -119.7400 98° East 167 192 4,700 720 Climbing Los Angeles Center
07:33PM 34.2600 -119.7422 270° West 159 183 4,700 300 Level Los Angeles Center
07:34PM 34.2572 -119.6967 94° East 145 167 5,000 240 Climbing Los Angeles Center
07:34PM 34.2536 -119.6694 99° East 156 180 5,000  Level Los Angeles Center
07:35PM 34.2519 -119.6333 93° East 180 207 5,000  Level Los Angeles Center
07:35PM 34.2514 -119.6075 91° East 170 196 5,000  Level Los Angeles Center
07:36PM 34.2478 -119.5750 98° East 185 213 5,000  Level Los Angeles Center
07:36PM 34.2469 -119.5469 92° East 178 205 5,000  Level Los Angeles Center
07:37PM 34.2453 -119.5133 93° East 180 207 5,000  Level Los Angeles Center
07:37PM 34.2408 -119.4878 102° East 179 206 5,000  Level Los Angeles Center
07:38PM 34.2408 -119.4447 90° East 179 206 5,000  Level Los Angeles Center
07:38PM 34.2397 -119.4275 94° East 179 206 5,000  Level Los Angeles Center
07:39PM 34.2392 -119.3881 91° East 180 207 5,000  Level Los Angeles Center
07:39PM 34.2383 -119.3556 92° East 178 205 5,000  Level Los Angeles Center
07:40PM 34.2383 -119.3258 90° East 176 203 5,000  Level Los Angeles Center
07:40PM 34.2381 -119.2958 91° East 178 205 5,000  Level Los Angeles Center
07:41PM 34.2386 -119.2686 89° East 175 201 5,000  Level Los Angeles Center
07:41PM 34.2394 -119.2358 88° East 178 205 5,000  Level Los Angeles Center
07:42PM 34.2400 -119.2058 89° East 178 205 5,000  Level Los Angeles Center
07:42PM 34.2400 -119.1778 90° East 176 203 5,000  Level Los Angeles Center
07:43PM 34.2403 -119.1483 89° East 176 203 5,000  Level Los Angeles Center
07:43PM 34.2411 -119.1183 88° East 176 203 5,000  Level Los Angeles Center
07:44PM 34.2414 -119.0856 89° East 178 205 5,000 60 Level Los Angeles Center
07:44PM 34.2406 -119.0589 92° East 177 204 5,100  Climbing Los Angeles Center
07:45PM 34.2369 -119.0272 98° East 178 205 5,000  Descending Los Angeles Center
07:45PM 34.2358 -118.9861 92° East 179 206 5,100  Climbing Los Angeles Center
07:46PM 34.2328 -118.9281 94° East 177 204 5,100  Level Los Angeles Center
07:48PM 34.2317 -118.8833 92° East 173 199 5,100  Level Los Angeles Center
07:49PM 34.2300 -118.8100 92° East 179 206 5,100  Level Los Angeles Center
07:50PM 34.2283 -118.7536 92° East 174 200 5,100  Level Los Angeles Center
07:51PM 34.2267 -118.6975 92° East 170 196 5,100  Level Los Angeles Center
07:52PM 34.2242 -118.6253 92° East 175 201 5,100  Level Los Angeles Center
07:53PM 34.2167 -118.5667 99° East 176 203 5,100  Level Southern California TRACON
07:54PM 34.2167 -118.5167 90° East 175 201 5,100  Level Southern California TRACON
07:55PM 34.2000 -118.4500 107° East 173 199 5,100  Level Southern California TRACON
07:56PM 34.2000 -118.4167 90° East 126 145 5,100  Level Southern California TRACON
07:57PM 34.1850 -118.3708 112° Southeast 123 142 5,200 -360 Climbing Los Angeles Center
07:58PM 34.1333 -118.3167 139° Southeast 140 161 4,200 -720 Descending Southern California TRACON
07:59PM 34.1167 -118.3333 220° Southwest 139 160 3,400 -1,020 Descending Southern California TRACON
08:00PM 34.0989 -118.3464 211° Southwest 140 161 2,800 -1,140 Descending Los Angeles Center
08:01PM 34.0706 -118.3797 224° Southwest 141 162 1,600 -900 Descending Los Angeles Center
08:02PM 34.0522 -118.4033 227° Southwest 110 127 1,000 -540 Descending Los Angeles Center
08:03PM 34.0294 -118.4339 228° Southwest 101 116 600 -420 Descending Los Angeles Center
08:04PM 34.0156 -118.4547 231° Southwest 94 108 200 -420 Descending Los Angeles Center